sensor_id;sensor_type;location;lat;lon;timestamp;temperature;humidity
21495;DHT22;10909;53.590;10.054;2022-12-05T00:01:32;7.90;76.30
21495;DHT22;10909;53.590;10.054;2022-12-05T00:04:04;7.90;76.30
21495;DHT22;10909;53.590;10.054;2022-12-05T00:06:30;7.90;76.20
21495;DHT22;10909;53.590;10.054;2022-12-05T00:08:56;7.90;76.20
21495;DHT22;10909;53.590;10.054;2022-12-05T00:11:25;7.90;76.20
21495;DHT22;10909;53.590;10.054;2022-12-05T00:13:53;7.90;76.20
21495;DHT22;10909;53.590;10.054;2022-12-05T00:16:20;7.90;76.30
21495;DHT22;10909;53.590;10.054;2022-12-05T00:18:47;8.00;76.30
21495;DHT22;10909;53.590;10.054;2022-12-05T00:21:16;7.90;76.30
21495;DHT22;10909;53.590;10.054;2022-12-05T00:23:43;7.90;76.30
21495;DHT22;10909;53.590;10.054;2022-12-05T00:26:09;7.90;76.30
21495;DHT22;10909;53.590;10.054;2022-12-05T00:28:35;7.90;76.40
21495;DHT22;10909;53.590;10.054;2022-12-05T00:31:04;7.90;76.40
21495;DHT22;10909;53.590;10.054;2022-12-05T00:33:30;8.00;76.60
21495;DHT22;10909;53.590;10.054;2022-12-05T00:36:03;8.00;76.60
21495;DHT22;10909;53.590;10.054;2022-12-05T00:38:30;8.00;76.50
21495;DHT22;10909;53.590;10.054;2022-12-05T00:41:02;8.00;76.40
21495;DHT22;10909;53.590;10.054;2022-12-05T00:43:28;7.90;76.40
21495;DHT22;10909;53.590;10.054;2022-12-05T00:45:53;7.90;76.40
21495;DHT22;10909;53.590;10.054;2022-12-05T00:48:19;8.00;76.60
21495;DHT22;10909;53.590;10.054;2022-12-05T00:50:45;8.00;76.60
21495;DHT22;10909;53.590;10.054;2022-12-05T00:53:10;8.00;76.60
21495;DHT22;10909;53.590;10.054;2022-12-05T00:55:36;8.00;76.60
21495;DHT22;10909;53.590;10.054;2022-12-05T00:58:02;8.00;76.60
21495;DHT22;10909;53.590;10.054;2022-12-05T01:00:28;8.00;76.70
21495;DHT22;10909;53.590;10.054;2022-12-05T01:02:54;8.00;76.60
21495;DHT22;10909;53.590;10.054;2022-12-05T01:05:20;8.00;76.60
21495;DHT22;10909;53.590;10.054;2022-12-05T01:07:46;8.10;76.70
21495;DHT22;10909;53.590;10.054;2022-12-05T01:10:11;8.10;76.60
21495;DHT22;10909;53.590;10.054;2022-12-05T01:12:37;8.10;76.60
21495;DHT22;10909;53.590;10.054;2022-12-05T01:15:03;8.10;76.60
21495;DHT22;10909;53.590;10.054;2022-12-05T01:17:29;8.10;76.50
21495;DHT22;10909;53.590;10.054;2022-12-05T01:19:55;8.10;76.50
21495;DHT22;10909;53.590;10.054;2022-12-05T01:22:20;8.10;76.50
21495;DHT22;10909;53.590;10.054;2022-12-05T01:24:46;8.10;76.60
21495;DHT22;10909;53.590;10.054;2022-12-05T01:27:11;8.10;76.60
21495;DHT22;10909;53.590;10.054;2022-12-05T01:29:37;8.10;76.50
21495;DHT22;10909;53.590;10.054;2022-12-05T01:32:03;8.10;76.60
21495;DHT22;10909;53.590;10.054;2022-12-05T01:34:29;8.20;76.70
21495;DHT22;10909;53.590;10.054;2022-12-05T01:36:54;8.10;76.60
21495;DHT22;10909;53.590;10.054;2022-12-05T01:39:20;8.20;76.70
21495;DHT22;10909;53.590;10.054;2022-12-05T01:41:48;8.20;76.70
21495;DHT22;10909;53.590;10.054;2022-12-05T01:46:44;8.20;76.60
21495;DHT22;10909;53.590;10.054;2022-12-05T01:49:23;8.20;76.60
21495;DHT22;10909;53.590;10.054;2022-12-05T01:51:52;8.30;76.80
21495;DHT22;10909;53.590;10.054;2022-12-05T01:54:21;8.30;76.60
21495;DHT22;10909;53.590;10.054;2022-12-05T01:56:58;8.20;76.50
21495;DHT22;10909;53.590;10.054;2022-12-05T01:59:26;8.30;76.70
21495;DHT22;10909;53.590;10.054;2022-12-05T02:01:53;8.30;76.70
21495;DHT22;10909;53.590;10.054;2022-12-05T02:04:19;8.30;76.70
21495;DHT22;10909;53.590;10.054;2022-12-05T02:06:45;8.30;76.60
21495;DHT22;10909;53.590;10.054;2022-12-05T02:09:11;8.30;76.70
21495;DHT22;10909;53.590;10.054;2022-12-05T02:11:50;8.30;76.60
21495;DHT22;10909;53.590;10.054;2022-12-05T02:20:09;8.30;76.80
21495;DHT22;10909;53.590;10.054;2022-12-05T02:31:36;8.30;76.80
21495;DHT22;10909;53.590;10.054;2022-12-05T02:34:19;8.30;76.70
21495;DHT22;10909;53.590;10.054;2022-12-05T02:36:57;8.30;77.60
21495;DHT22;10909;53.590;10.054;2022-12-05T02:42:09;8.30;77.00
21495;DHT22;10909;53.590;10.054;2022-12-05T02:44:51;8.30;76.90
21495;DHT22;10909;53.590;10.054;2022-12-05T02:47:23;8.30;77.00
21495;DHT22;10909;53.590;10.054;2022-12-05T02:49:50;8.30;77.00
21495;DHT22;10909;53.590;10.054;2022-12-05T02:52:17;8.30;77.10
21495;DHT22;10909;53.590;10.054;2022-12-05T02:54:46;8.30;77.20
21495;DHT22;10909;53.590;10.054;2022-12-05T02:57:14;8.40;77.30
21495;DHT22;10909;53.590;10.054;2022-12-05T02:59:41;8.40;77.20
21495;DHT22;10909;53.590;10.054;2022-12-05T03:02:25;8.40;77.20
21495;DHT22;10909;53.590;10.054;2022-12-05T03:04:52;8.40;77.30
21495;DHT22;10909;53.590;10.054;2022-12-05T03:07:21;8.40;77.10
21495;DHT22;10909;53.590;10.054;2022-12-05T03:09:51;8.50;77.20
21495;DHT22;10909;53.590;10.054;2022-12-05T03:12:31;8.50;77.20
21495;DHT22;10909;53.590;10.054;2022-12-05T03:18:20;8.50;77.30
21495;DHT22;10909;53.590;10.054;2022-12-05T03:20:45;8.50;77.00
21495;DHT22;10909;53.590;10.054;2022-12-05T03:23:21;8.50;77.10
21495;DHT22;10909;53.590;10.054;2022-12-05T03:26:04;8.50;77.20
21495;DHT22;10909;53.590;10.054;2022-12-05T03:29:00;8.50;77.20
21495;DHT22;10909;53.590;10.054;2022-12-05T03:34:36;8.50;77.40
21495;DHT22;10909;53.590;10.054;2022-12-05T03:37:12;8.50;77.30
21495;DHT22;10909;53.590;10.054;2022-12-05T03:39:43;8.50;77.30
21495;DHT22;10909;53.590;10.054;2022-12-05T03:42:15;8.50;77.40
21495;DHT22;10909;53.590;10.054;2022-12-05T03:44:58;8.50;78.20
21495;DHT22;10909;53.590;10.054;2022-12-05T03:47:45;8.50;77.60
21495;DHT22;10909;53.590;10.054;2022-12-05T03:50:23;8.50;77.50
21495;DHT22;10909;53.590;10.054;2022-12-05T03:53:00;8.50;77.50
21495;DHT22;10909;53.590;10.054;2022-12-05T03:55:30;8.50;77.50
21495;DHT22;10909;53.590;10.054;2022-12-05T03:58:01;8.50;77.40
21495;DHT22;10909;53.590;10.054;2022-12-05T04:00:34;8.50;77.50
21495;DHT22;10909;53.590;10.054;2022-12-05T04:05:38;8.50;77.50
21495;DHT22;10909;53.590;10.054;2022-12-05T04:08:13;8.40;77.50
21495;DHT22;10909;53.590;10.054;2022-12-05T04:10:44;8.40;77.50
21495;DHT22;10909;53.590;10.054;2022-12-05T04:13:20;8.40;77.60
21495;DHT22;10909;53.590;10.054;2022-12-05T04:15:57;8.40;77.50
21495;DHT22;10909;53.590;10.054;2022-12-05T04:18:49;8.40;77.60
21495;DHT22;10909;53.590;10.054;2022-12-05T04:21:19;8.40;77.50
21495;DHT22;10909;53.590;10.054;2022-12-05T04:24:11;8.30;77.60
21495;DHT22;10909;53.590;10.054;2022-12-05T04:35:08;8.30;77.60
21495;DHT22;10909;53.590;10.054;2022-12-05T04:37:39;8.30;77.70
21495;DHT22;10909;53.590;10.054;2022-12-05T04:40:13;8.30;77.70
21495;DHT22;10909;53.590;10.054;2022-12-05T04:42:40;8.30;77.70
21495;DHT22;10909;53.590;10.054;2022-12-05T04:45:09;8.30;77.70
21495;DHT22;10909;53.590;10.054;2022-12-05T04:47:40;8.30;77.60
21495;DHT22;10909;53.590;10.054;2022-12-05T04:50:08;8.30;77.70
21495;DHT22;10909;53.590;10.054;2022-12-05T04:52:36;8.20;77.50
21495;DHT22;10909;53.590;10.054;2022-12-05T04:55:13;8.20;77.60
21495;DHT22;10909;53.590;10.054;2022-12-05T05:00:21;8.20;77.90
21495;DHT22;10909;53.590;10.054;2022-12-05T05:02:54;8.20;77.90
21495;DHT22;10909;53.590;10.054;2022-12-05T05:05:23;8.20;77.90
21495;DHT22;10909;53.590;10.054;2022-12-05T05:07:51;8.10;77.80
21495;DHT22;10909;53.590;10.054;2022-12-05T05:10:24;8.20;77.90
21495;DHT22;10909;53.590;10.054;2022-12-05T05:12:51;8.10;78.00
21495;DHT22;10909;53.590;10.054;2022-12-05T05:15:17;8.10;78.10
21495;DHT22;10909;53.590;10.054;2022-12-05T05:17:43;8.20;78.00
21495;DHT22;10909;53.590;10.054;2022-12-05T05:20:08;8.10;78.00
21495;DHT22;10909;53.590;10.054;2022-12-05T05:22:50;8.20;78.10
21495;DHT22;10909;53.590;10.054;2022-12-05T05:25:16;8.20;78.20
21495;DHT22;10909;53.590;10.054;2022-12-05T05:27:42;8.20;78.90
21495;DHT22;10909;53.590;10.054;2022-12-05T05:30:11;8.20;78.20
21495;DHT22;10909;53.590;10.054;2022-12-05T05:32:37;8.20;77.90
21495;DHT22;10909;53.590;10.054;2022-12-05T05:35:03;8.20;77.90
21495;DHT22;10909;53.590;10.054;2022-12-05T05:37:29;8.20;77.90
21495;DHT22;10909;53.590;10.054;2022-12-05T05:39:55;8.20;77.90
21495;DHT22;10909;53.590;10.054;2022-12-05T05:42:20;8.30;77.90
21495;DHT22;10909;53.590;10.054;2022-12-05T05:44:46;8.20;77.90
21495;DHT22;10909;53.590;10.054;2022-12-05T05:47:12;8.20;77.80
21495;DHT22;10909;53.590;10.054;2022-12-05T05:49:37;8.20;77.80
21495;DHT22;10909;53.590;10.054;2022-12-05T05:52:03;8.20;77.70
21495;DHT22;10909;53.590;10.054;2022-12-05T05:54:30;8.20;77.70
21495;DHT22;10909;53.590;10.054;2022-12-05T05:56:56;8.20;77.60
21495;DHT22;10909;53.590;10.054;2022-12-05T05:59:21;8.20;77.70
21495;DHT22;10909;53.590;10.054;2022-12-05T06:01:47;8.20;77.70
21495;DHT22;10909;53.590;10.054;2022-12-05T06:04:12;8.20;77.70
21495;DHT22;10909;53.590;10.054;2022-12-05T06:06:39;8.20;77.70
21495;DHT22;10909;53.590;10.054;2022-12-05T06:09:06;8.10;77.60
21495;DHT22;10909;53.590;10.054;2022-12-05T06:11:32;8.10;77.70
21495;DHT22;10909;53.590;10.054;2022-12-05T06:13:58;8.10;77.70
21495;DHT22;10909;53.590;10.054;2022-12-05T06:16:28;8.10;77.70
21495;DHT22;10909;53.590;10.054;2022-12-05T06:18:54;8.10;77.60
21495;DHT22;10909;53.590;10.054;2022-12-05T06:21:20;8.10;77.70
21495;DHT22;10909;53.590;10.054;2022-12-05T06:23:46;8.10;78.50
21495;DHT22;10909;53.590;10.054;2022-12-05T06:26:14;8.10;77.60
21495;DHT22;10909;53.590;10.054;2022-12-05T06:28:41;8.10;77.60
21495;DHT22;10909;53.590;10.054;2022-12-05T06:31:16;8.10;77.50
21495;DHT22;10909;53.590;10.054;2022-12-05T06:33:42;8.10;77.40
21495;DHT22;10909;53.590;10.054;2022-12-05T06:36:11;8.10;77.40
21495;DHT22;10909;53.590;10.054;2022-12-05T06:38:37;8.10;77.50
21495;DHT22;10909;53.590;10.054;2022-12-05T06:41:07;8.00;77.40
21495;DHT22;10909;53.590;10.054;2022-12-05T06:43:33;8.00;77.40
21495;DHT22;10909;53.590;10.054;2022-12-05T06:46:03;8.00;77.40
21495;DHT22;10909;53.590;10.054;2022-12-05T06:48:30;8.00;77.40
21495;DHT22;10909;53.590;10.054;2022-12-05T06:50:55;8.00;77.50
21495;DHT22;10909;53.590;10.054;2022-12-05T06:53:21;8.00;78.10
21495;DHT22;10909;53.590;10.054;2022-12-05T06:55:56;8.00;77.50
21495;DHT22;10909;53.590;10.054;2022-12-05T06:58:23;8.00;77.60
21495;DHT22;10909;53.590;10.054;2022-12-05T07:00:49;8.00;77.60
21495;DHT22;10909;53.590;10.054;2022-12-05T07:03:51;8.00;77.50
21495;DHT22;10909;53.590;10.054;2022-12-05T07:06:16;7.90;77.30
21495;DHT22;10909;53.590;10.054;2022-12-05T07:08:42;7.90;77.40
21495;DHT22;10909;53.590;10.054;2022-12-05T07:11:09;7.90;77.40
21495;DHT22;10909;53.590;10.054;2022-12-05T07:13:34;7.80;77.40
21495;DHT22;10909;53.590;10.054;2022-12-05T07:16:02;7.80;77.50
21495;DHT22;10909;53.590;10.054;2022-12-05T07:18:28;7.70;77.50
21495;DHT22;10909;53.590;10.054;2022-12-05T07:20:56;7.70;77.60
21495;DHT22;10909;53.590;10.054;2022-12-05T07:23:22;7.70;77.70
21495;DHT22;10909;53.590;10.054;2022-12-05T07:25:48;7.70;77.60
21495;DHT22;10909;53.590;10.054;2022-12-05T07:28:14;7.70;77.70
21495;DHT22;10909;53.590;10.054;2022-12-05T07:30:41;7.60;77.60
21495;DHT22;10909;53.590;10.054;2022-12-05T07:33:07;7.60;77.40
21495;DHT22;10909;53.590;10.054;2022-12-05T07:35:32;7.60;77.30
21495;DHT22;10909;53.590;10.054;2022-12-05T07:37:58;7.50;77.30
21495;DHT22;10909;53.590;10.054;2022-12-05T07:40:24;7.50;77.30
21495;DHT22;10909;53.590;10.054;2022-12-05T07:42:50;7.40;77.20
21495;DHT22;10909;53.590;10.054;2022-12-05T07:45:18;7.40;77.40
21495;DHT22;10909;53.590;10.054;2022-12-05T07:47:44;7.40;77.50
21495;DHT22;10909;53.590;10.054;2022-12-05T07:50:10;7.40;77.60
21495;DHT22;10909;53.590;10.054;2022-12-05T07:52:36;7.30;77.60
21495;DHT22;10909;53.590;10.054;2022-12-05T07:55:02;7.30;77.60
21495;DHT22;10909;53.590;10.054;2022-12-05T07:57:29;7.30;77.70
21495;DHT22;10909;53.590;10.054;2022-12-05T07:59:55;7.30;77.60
21495;DHT22;10909;53.590;10.054;2022-12-05T08:02:21;7.30;77.50
21495;DHT22;10909;53.590;10.054;2022-12-05T08:04:46;7.30;77.30
21495;DHT22;10909;53.590;10.054;2022-12-05T08:07:12;7.30;77.50
21495;DHT22;10909;53.590;10.054;2022-12-05T08:09:38;7.30;77.50
21495;DHT22;10909;53.590;10.054;2022-12-05T08:12:04;7.30;77.50
21495;DHT22;10909;53.590;10.054;2022-12-05T08:14:29;7.30;77.50
21495;DHT22;10909;53.590;10.054;2022-12-05T08:16:55;7.30;77.50
21495;DHT22;10909;53.590;10.054;2022-12-05T08:19:21;7.30;77.50
21495;DHT22;10909;53.590;10.054;2022-12-05T08:21:46;7.30;77.40
21495;DHT22;10909;53.590;10.054;2022-12-05T08:24:12;7.30;77.30
21495;DHT22;10909;53.590;10.054;2022-12-05T08:26:39;7.30;77.30
21495;DHT22;10909;53.590;10.054;2022-12-05T08:29:11;7.30;77.30
21495;DHT22;10909;53.590;10.054;2022-12-05T08:31:48;7.30;77.30
21495;DHT22;10909;53.590;10.054;2022-12-05T08:34:16;7.30;77.30
21495;DHT22;10909;53.590;10.054;2022-12-05T08:36:42;7.20;77.20
21495;DHT22;10909;53.590;10.054;2022-12-05T08:39:11;7.20;77.20
21495;DHT22;10909;53.590;10.054;2022-12-05T08:41:39;7.20;77.20
21495;DHT22;10909;53.590;10.054;2022-12-05T08:44:05;7.20;77.20
21495;DHT22;10909;53.590;10.054;2022-12-05T08:46:34;7.20;77.20
21495;DHT22;10909;53.590;10.054;2022-12-05T08:49:03;7.10;77.30
21495;DHT22;10909;53.590;10.054;2022-12-05T08:51:28;7.10;77.40
21495;DHT22;10909;53.590;10.054;2022-12-05T08:53:54;7.10;77.50
21495;DHT22;10909;53.590;10.054;2022-12-05T08:56:21;7.10;77.60
21495;DHT22;10909;53.590;10.054;2022-12-05T08:58:47;7.10;77.60
21495;DHT22;10909;53.590;10.054;2022-12-05T09:01:15;7.10;77.70
21495;DHT22;10909;53.590;10.054;2022-12-05T09:03:42;7.10;77.70
21495;DHT22;10909;53.590;10.054;2022-12-05T09:06:22;7.10;77.70
21495;DHT22;10909;53.590;10.054;2022-12-05T09:08:52;7.20;77.70
21495;DHT22;10909;53.590;10.054;2022-12-05T09:11:24;7.20;77.60
21495;DHT22;10909;53.590;10.054;2022-12-05T09:13:51;7.20;77.50
21495;DHT22;10909;53.590;10.054;2022-12-05T09:16:20;7.20;77.30
21495;DHT22;10909;53.590;10.054;2022-12-05T09:18:47;7.20;77.30
21495;DHT22;10909;53.590;10.054;2022-12-05T09:21:19;7.20;77.30
21495;DHT22;10909;53.590;10.054;2022-12-05T09:23:45;7.20;77.40
21495;DHT22;10909;53.590;10.054;2022-12-05T09:26:14;7.20;77.40
21495;DHT22;10909;53.590;10.054;2022-12-05T09:28:41;7.20;77.40
21495;DHT22;10909;53.590;10.054;2022-12-05T09:31:13;7.10;77.40
21495;DHT22;10909;53.590;10.054;2022-12-05T09:33:39;7.20;77.50
21495;DHT22;10909;53.590;10.054;2022-12-05T09:36:08;7.10;77.50
21495;DHT22;10909;53.590;10.054;2022-12-05T09:38:35;7.10;77.50
21495;DHT22;10909;53.590;10.054;2022-12-05T09:49:35;7.10;77.60
21495;DHT22;10909;53.590;10.054;2022-12-05T09:52:05;7.10;77.50
21495;DHT22;10909;53.590;10.054;2022-12-05T09:54:31;7.10;77.20
21495;DHT22;10909;53.590;10.054;2022-12-05T09:56:57;7.00;77.40
21495;DHT22;10909;53.590;10.054;2022-12-05T09:59:23;7.10;77.60
21495;DHT22;10909;53.590;10.054;2022-12-05T10:01:56;7.00;77.60
21495;DHT22;10909;53.590;10.054;2022-12-05T10:07:36;7.10;77.70
21495;DHT22;10909;53.590;10.054;2022-12-05T10:15:37;7.10;77.60
21495;DHT22;10909;53.590;10.054;2022-12-05T10:18:29;7.10;77.60
21495;DHT22;10909;53.590;10.054;2022-12-05T10:23:48;7.10;77.70
21495;DHT22;10909;53.590;10.054;2022-12-05T10:26:16;7.10;77.80
21495;DHT22;10909;53.590;10.054;2022-12-05T10:31:26;7.10;77.80
21495;DHT22;10909;53.590;10.054;2022-12-05T10:34:15;7.10;77.70
21495;DHT22;10909;53.590;10.054;2022-12-05T10:36:57;7.10;77.60
21495;DHT22;10909;53.590;10.054;2022-12-05T10:39:25;7.20;77.60
21495;DHT22;10909;53.590;10.054;2022-12-05T10:41:51;7.10;77.50
21495;DHT22;10909;53.590;10.054;2022-12-05T10:44:17;7.10;77.50
21495;DHT22;10909;53.590;10.054;2022-12-05T10:46:43;7.10;77.60
21495;DHT22;10909;53.590;10.054;2022-12-05T10:49:11;7.10;77.60
21495;DHT22;10909;53.590;10.054;2022-12-05T10:51:38;7.10;77.70
21495;DHT22;10909;53.590;10.054;2022-12-05T10:54:23;7.10;77.70
21495;DHT22;10909;53.590;10.054;2022-12-05T10:56:51;7.10;77.70
21495;DHT22;10909;53.590;10.054;2022-12-05T10:59:22;7.20;77.60
21495;DHT22;10909;53.590;10.054;2022-12-05T11:04:38;7.10;77.40
21495;DHT22;10909;53.590;10.054;2022-12-05T11:07:05;7.20;77.50
21495;DHT22;10909;53.590;10.054;2022-12-05T11:09:34;7.10;77.30
21495;DHT22;10909;53.590;10.054;2022-12-05T11:14:58;7.10;77.50
21495;DHT22;10909;53.590;10.054;2022-12-05T11:17:36;7.20;77.60
21495;DHT22;10909;53.590;10.054;2022-12-05T11:22:53;7.20;77.50
21495;DHT22;10909;53.590;10.054;2022-12-05T11:27:56;7.20;77.20
21495;DHT22;10909;53.590;10.054;2022-12-05T11:30:25;7.20;77.60
21495;DHT22;10909;53.590;10.054;2022-12-05T11:35:41;7.20;77.30
21495;DHT22;10909;53.590;10.054;2022-12-05T11:38:10;7.20;77.30
21495;DHT22;10909;53.590;10.054;2022-12-05T11:40:54;7.20;77.30
21495;DHT22;10909;53.590;10.054;2022-12-05T11:49:13;7.30;77.30
21495;DHT22;10909;53.590;10.054;2022-12-05T12:00:43;7.30;77.10
21495;DHT22;10909;53.590;10.054;2022-12-05T12:06:07;7.30;77.20
21495;DHT22;10909;53.590;10.054;2022-12-05T12:11:43;7.30;77.50
21495;DHT22;10909;53.590;10.054;2022-12-05T12:15:07;7.30;77.40
21495;DHT22;10909;53.590;10.054;2022-12-05T12:28:38;7.40;77.20
21495;DHT22;10909;53.590;10.054;2022-12-05T12:33:45;7.40;76.90
21495;DHT22;10909;53.590;10.054;2022-12-05T12:36:37;7.40;76.90
21495;DHT22;10909;53.590;10.054;2022-12-05T12:45:17;7.40;77.00
21495;DHT22;10909;53.590;10.054;2022-12-05T12:50:35;7.40;76.90
21495;DHT22;10909;53.590;10.054;2022-12-05T12:53:20;7.40;76.80
21495;DHT22;10909;53.590;10.054;2022-12-05T12:58:42;7.40;76.90
21495;DHT22;10909;53.590;10.054;2022-12-05T13:01:28;7.40;77.00
21495;DHT22;10909;53.590;10.054;2022-12-05T13:04:03;7.40;77.00
21495;DHT22;10909;53.590;10.054;2022-12-05T13:09:17;7.40;77.00
21495;DHT22;10909;53.590;10.054;2022-12-05T13:11:45;7.40;77.00
21495;DHT22;10909;53.590;10.054;2022-12-05T13:14:15;7.50;77.00
21495;DHT22;10909;53.590;10.054;2022-12-05T13:16:44;7.50;77.00
21495;DHT22;10909;53.590;10.054;2022-12-05T13:19:31;7.50;77.00
21495;DHT22;10909;53.590;10.054;2022-12-05T13:22:04;7.50;77.00
21495;DHT22;10909;53.590;10.054;2022-12-05T13:24:30;7.50;76.90
21495;DHT22;10909;53.590;10.054;2022-12-05T13:26:59;7.50;76.80
21495;DHT22;10909;53.590;10.054;2022-12-05T13:29:31;7.50;77.20
21495;DHT22;10909;53.590;10.054;2022-12-05T13:31:58;7.50;77.20
21495;DHT22;10909;53.590;10.054;2022-12-05T13:36:55;7.60;77.00
21495;DHT22;10909;53.590;10.054;2022-12-05T13:39:40;7.60;76.80
21495;DHT22;10909;53.590;10.054;2022-12-05T13:42:27;7.60;76.70
21495;DHT22;10909;53.590;10.054;2022-12-05T13:44:57;7.50;76.70
21495;DHT22;10909;53.590;10.054;2022-12-05T13:50:28;7.60;76.80
21495;DHT22;10909;53.590;10.054;2022-12-05T13:53:03;7.60;76.80
21495;DHT22;10909;53.590;10.054;2022-12-05T13:55:36;7.60;76.70
21495;DHT22;10909;53.590;10.054;2022-12-05T14:00:49;7.50;76.60
21495;DHT22;10909;53.590;10.054;2022-12-05T14:05:52;7.50;76.60
21495;DHT22;10909;53.590;10.054;2022-12-05T14:15:52;7.40;76.60
21495;DHT22;10909;53.590;10.054;2022-12-05T14:18:44;7.40;76.60
21495;DHT22;10909;53.590;10.054;2022-12-05T14:24:04;7.40;76.60
21495;DHT22;10909;53.590;10.054;2022-12-05T14:29:58;7.40;76.40
21495;DHT22;10909;53.590;10.054;2022-12-05T14:32:30;7.40;77.20
21495;DHT22;10909;53.590;10.054;2022-12-05T14:37:35;7.40;76.60
21495;DHT22;10909;53.590;10.054;2022-12-05T14:45:36;7.40;76.50
21495;DHT22;10909;53.590;10.054;2022-12-05T14:50:53;7.40;76.60
21495;DHT22;10909;53.590;10.054;2022-12-05T14:53:21;7.40;76.40
21495;DHT22;10909;53.590;10.054;2022-12-05T14:58:53;7.30;76.30
21495;DHT22;10909;53.590;10.054;2022-12-05T15:04:50;7.40;76.10
21495;DHT22;10909;53.590;10.054;2022-12-05T15:07:25;7.30;76.00
21495;DHT22;10909;53.590;10.054;2022-12-05T15:12:52;7.30;76.00
21495;DHT22;10909;53.590;10.054;2022-12-05T15:15:36;7.30;76.10
21495;DHT22;10909;53.590;10.054;2022-12-05T15:18:36;7.20;76.00
21495;DHT22;10909;53.590;10.054;2022-12-05T15:26:40;7.20;76.00
21495;DHT22;10909;53.590;10.054;2022-12-05T15:31:44;7.10;76.00
21495;DHT22;10909;53.590;10.054;2022-12-05T15:37:07;7.10;76.10
21495;DHT22;10909;53.590;10.054;2022-12-05T15:39:54;7.10;76.00
21495;DHT22;10909;53.590;10.054;2022-12-05T15:42:44;7.10;76.00
21495;DHT22;10909;53.590;10.054;2022-12-05T15:47:47;7.00;76.00
21495;DHT22;10909;53.590;10.054;2022-12-05T15:52:57;7.00;76.10
21495;DHT22;10909;53.590;10.054;2022-12-05T15:55:30;6.90;76.10
21495;DHT22;10909;53.590;10.054;2022-12-05T16:00:40;7.00;76.20
21495;DHT22;10909;53.590;10.054;2022-12-05T16:03:19;7.00;76.20
21495;DHT22;10909;53.590;10.054;2022-12-05T16:05:47;7.00;76.30
21495;DHT22;10909;53.590;10.054;2022-12-05T16:08:14;7.00;76.30
21495;DHT22;10909;53.590;10.054;2022-12-05T16:10:40;7.00;76.30
21495;DHT22;10909;53.590;10.054;2022-12-05T16:13:16;7.00;76.20
21495;DHT22;10909;53.590;10.054;2022-12-05T16:15:49;7.00;76.30
21495;DHT22;10909;53.590;10.054;2022-12-05T16:18:30;7.00;76.30
21495;DHT22;10909;53.590;10.054;2022-12-05T16:20:56;7.00;76.30
21495;DHT22;10909;53.590;10.054;2022-12-05T16:23:29;7.00;76.30
21495;DHT22;10909;53.590;10.054;2022-12-05T16:28:40;7.00;76.30
21495;DHT22;10909;53.590;10.054;2022-12-05T16:31:12;7.00;76.20
21495;DHT22;10909;53.590;10.054;2022-12-05T16:33:39;7.00;76.20
21495;DHT22;10909;53.590;10.054;2022-12-05T16:36:09;7.10;76.30
21495;DHT22;10909;53.590;10.054;2022-12-05T16:38:35;7.00;76.20
21495;DHT22;10909;53.590;10.054;2022-12-05T16:41:03;7.10;76.40
21495;DHT22;10909;53.590;10.054;2022-12-05T16:48:39;7.10;76.30
21495;DHT22;10909;53.590;10.054;2022-12-05T16:51:20;7.10;76.30
21495;DHT22;10909;53.590;10.054;2022-12-05T16:53:49;7.10;76.30
21495;DHT22;10909;53.590;10.054;2022-12-05T16:56:20;7.10;76.20
21495;DHT22;10909;53.590;10.054;2022-12-05T16:58:46;7.10;76.20
21495;DHT22;10909;53.590;10.054;2022-12-05T17:01:21;7.10;76.10
21495;DHT22;10909;53.590;10.054;2022-12-05T17:03:48;7.20;76.10
21495;DHT22;10909;53.590;10.054;2022-12-05T17:06:14;7.20;76.90
21495;DHT22;10909;53.590;10.054;2022-12-05T17:08:40;7.20;76.00
21495;DHT22;10909;53.590;10.054;2022-12-05T17:11:13;7.20;76.00
21495;DHT22;10909;53.590;10.054;2022-12-05T17:13:40;7.20;76.00
21495;DHT22;10909;53.590;10.054;2022-12-05T17:16:06;7.20;76.00
21495;DHT22;10909;53.590;10.054;2022-12-05T17:18:32;7.20;76.00
21495;DHT22;10909;53.590;10.054;2022-12-05T17:21:01;7.20;76.00
21495;DHT22;10909;53.590;10.054;2022-12-05T17:23:27;7.20;76.00
21495;DHT22;10909;53.590;10.054;2022-12-05T17:25:55;7.20;76.10
21495;DHT22;10909;53.590;10.054;2022-12-05T17:28:21;7.20;76.00
21495;DHT22;10909;53.590;10.054;2022-12-05T17:30:47;7.20;76.70
21495;DHT22;10909;53.590;10.054;2022-12-05T17:33:17;7.20;75.90
21495;DHT22;10909;53.590;10.054;2022-12-05T17:35:43;7.20;75.90
21495;DHT22;10909;53.590;10.054;2022-12-05T17:38:09;7.20;75.80
21495;DHT22;10909;53.590;10.054;2022-12-05T17:40:36;7.20;75.80
21495;DHT22;10909;53.590;10.054;2022-12-05T17:43:02;7.20;75.90
21495;DHT22;10909;53.590;10.054;2022-12-05T17:45:29;7.20;75.90
21495;DHT22;10909;53.590;10.054;2022-12-05T17:47:55;7.20;75.90
21495;DHT22;10909;53.590;10.054;2022-12-05T17:50:22;7.20;75.90
21495;DHT22;10909;53.590;10.054;2022-12-05T17:52:49;7.20;75.90
21495;DHT22;10909;53.590;10.054;2022-12-05T17:55:18;7.20;76.00
21495;DHT22;10909;53.590;10.054;2022-12-05T17:57:45;7.20;76.00
21495;DHT22;10909;53.590;10.054;2022-12-05T18:00:12;7.20;76.00
21495;DHT22;10909;53.590;10.054;2022-12-05T18:02:39;7.20;76.00
21495;DHT22;10909;53.590;10.054;2022-12-05T18:05:05;7.20;76.00
21495;DHT22;10909;53.590;10.054;2022-12-05T18:07:31;7.20;76.00
21495;DHT22;10909;53.590;10.054;2022-12-05T18:09:56;7.30;76.00
21495;DHT22;10909;53.590;10.054;2022-12-05T18:12:22;7.20;75.90
21495;DHT22;10909;53.590;10.054;2022-12-05T18:14:48;7.20;75.80
21495;DHT22;10909;53.590;10.054;2022-12-05T18:17:14;7.20;75.90
21495;DHT22;10909;53.590;10.054;2022-12-05T18:19:40;7.20;75.80
21495;DHT22;10909;53.590;10.054;2022-12-05T18:22:05;7.10;75.70
21495;DHT22;10909;53.590;10.054;2022-12-05T18:24:31;7.10;75.80
21495;DHT22;10909;53.590;10.054;2022-12-05T18:26:57;7.10;76.70
21495;DHT22;10909;53.590;10.054;2022-12-05T18:29:23;7.10;75.90
21495;DHT22;10909;53.590;10.054;2022-12-05T18:31:49;7.10;75.80
21495;DHT22;10909;53.590;10.054;2022-12-05T18:34:15;7.00;75.70
21495;DHT22;10909;53.590;10.054;2022-12-05T18:36:41;7.00;75.80
21495;DHT22;10909;53.590;10.054;2022-12-05T18:39:08;7.00;75.80
21495;DHT22;10909;53.590;10.054;2022-12-05T18:41:35;7.00;76.00
21495;DHT22;10909;53.590;10.054;2022-12-05T18:44:01;7.00;76.10
21495;DHT22;10909;53.590;10.054;2022-12-05T18:46:27;7.00;76.10
21495;DHT22;10909;53.590;10.054;2022-12-05T18:48:52;7.00;76.20
21495;DHT22;10909;53.590;10.054;2022-12-05T18:51:20;7.00;76.30
21495;DHT22;10909;53.590;10.054;2022-12-05T18:53:48;7.00;76.30
21495;DHT22;10909;53.590;10.054;2022-12-05T18:56:18;7.00;76.20
21495;DHT22;10909;53.590;10.054;2022-12-05T18:58:44;7.00;76.10
21495;DHT22;10909;53.590;10.054;2022-12-05T19:01:12;7.10;76.10
21495;DHT22;10909;53.590;10.054;2022-12-05T19:03:38;7.00;76.10